Dingxian, China
Current Conditions -  °F | °C
As of 10:00 PM on Thursday 27 Nov 2014 (Local Time) from ZBSJ Reporting Station
Light Rain Light Rain  
Wind Chill: 32°   Ceiling: 4000
Heat Index: 36°   Visibility: 2.8mi
Dew Point: 34°   Wind: 4mph
Humidity: 93%   Direction: 20°NNE
Pressure: 30.24"   Gusts: NA
Location:  38.51°N, 114.99°E
Report Text: ZBSJ 271400Z 02002MPS 4500 -RA BR OVC040 02/01 Q1024 NOSIG
Loading
Personal Weather Stations






























Interactive Weather Map New forecast layout! Learn more

10-Day Weather Forecast

Advertisements
Track Severe Weather on mobile